sensor_id;sensor_type;location;lat;lon;timestamp;pressure;altitude;pressure_sealevel;temperature;humidity
14041;BME280;7095;51.388;6.196;2022-08-03T00:00:34;53302.28;;;-145.32;100.00
14041;BME280;7095;51.388;6.196;2022-08-03T00:03:03;53294.34;;;-145.32;100.00
14041;BME280;7095;51.388;6.196;2022-08-03T00:05:32;53324.16;;;-145.32;100.00
14041;BME280;7095;51.388;6.196;2022-08-03T00:08:01;53326.16;;;-145.32;100.00
14041;BME280;7095;51.388;6.196;2022-08-03T00:10:31;53336.09;;;-145.32;100.00
14041;BME280;7095;51.388;6.196;2022-08-03T00:13:01;53312.22;;;-145.32;100.00
14041;BME280;7095;51.388;6.196;2022-08-03T00:15:30;53334.09;;;-145.32;100.00
14041;BME280;7095;51.388;6.196;2022-08-03T00:17:58;53324.16;;;-145.32;100.00
14041;BME280;7095;51.388;6.196;2022-08-03T00:20:27;53357.94;;;-145.32;100.00
14041;BME280;7095;51.388;6.196;2022-08-03T00:22:56;53348.00;;;-145.32;100.00
14041;BME280;7095;51.388;6.196;2022-08-03T00:25:25;53336.09;;;-145.32;100.00
14041;BME280;7095;51.388;6.196;2022-08-03T00:27:54;53355.97;;;-145.32;100.00
14041;BME280;7095;51.388;6.196;2022-08-03T00:30:25;53314.22;;;-145.32;100.00
14041;BME280;7095;51.388;6.196;2022-08-03T00:33:04;53342.06;;;-145.32;100.00
14041;BME280;7095;51.388;6.196;2022-08-03T00:35:34;53340.06;;;-145.32;100.00
14041;BME280;7095;51.388;6.196;2022-08-03T00:38:17;53338.06;;;-145.32;100.00
14041;BME280;7095;51.388;6.196;2022-08-03T00:40:46;53342.06;;;-145.32;100.00
14041;BME280;7095;51.388;6.196;2022-08-03T00:43:15;53357.94;;;-145.32;100.00
14041;BME280;7095;51.388;6.196;2022-08-03T00:45:45;53375.84;;;-145.32;100.00
14041;BME280;7095;51.388;6.196;2022-08-03T00:48:16;53359.94;;;-145.32;100.00
14041;BME280;7095;51.388;6.196;2022-08-03T00:51:04;53361.94;;;-145.32;100.00
14041;BME280;7095;51.388;6.196;2022-08-03T00:53:35;53344.03;;;-145.32;100.00
14041;BME280;7095;51.388;6.196;2022-08-03T00:56:04;53361.94;;;-145.32;100.00
14041;BME280;7095;51.388;6.196;2022-08-03T00:58:33;53367.91;;;-145.32;100.00
14041;BME280;7095;51.388;6.196;2022-08-03T01:01:03;53363.91;;;-145.32;100.00
14041;BME280;7095;51.388;6.196;2022-08-03T01:03:33;53334.09;;;-145.32;100.00
14041;BME280;7095;51.388;6.196;2022-08-03T01:06:09;53367.91;;;-145.32;100.00
14041;BME280;7095;51.388;6.196;2022-08-03T01:08:44;53361.94;;;-145.32;100.00
14041;BME280;7095;51.388;6.196;2022-08-03T01:11:18;53367.91;;;-145.32;100.00
14041;BME280;7095;51.388;6.196;2022-08-03T01:13:56;53385.78;;;-145.32;100.00
14041;BME280;7095;51.388;6.196;2022-08-03T01:16:53;53359.94;;;-145.32;100.00
14041;BME280;7095;51.388;6.196;2022-08-03T01:19:38;53367.91;;;-145.32;100.00
14041;BME280;7095;51.388;6.196;2022-08-03T01:22:29;53363.91;;;-145.32;100.00
14041;BME280;7095;51.388;6.196;2022-08-03T01:25:10;53383.78;;;-145.32;100.00
14041;BME280;7095;51.388;6.196;2022-08-03T01:28:01;53369.88;;;-145.32;100.00
14041;BME280;7095;51.388;6.196;2022-08-03T01:30:40;53383.78;;;-145.32;100.00
14041;BME280;7095;51.388;6.196;2022-08-03T01:33:14;53340.06;;;-145.32;100.00
14041;BME280;7095;51.388;6.196;2022-08-03T01:35:47;53359.94;;;-145.32;100.00
14041;BME280;7095;51.388;6.196;2022-08-03T01:38:26;53375.84;;;-145.32;100.00
14041;BME280;7095;51.388;6.196;2022-08-03T01:40:55;53373.84;;;-145.32;100.00
14041;BME280;7095;51.388;6.196;2022-08-03T01:43:26;53373.84;;;-145.32;100.00
14041;BME280;7095;51.388;6.196;2022-08-03T01:46:18;53330.13;;;-145.32;100.00
14041;BME280;7095;51.388;6.196;2022-08-03T01:48:48;53383.78;;;-145.32;100.00
14041;BME280;7095;51.388;6.196;2022-08-03T01:51:19;53383.78;;;-145.32;100.00
14041;BME280;7095;51.388;6.196;2022-08-03T01:53:49;53375.84;;;-145.32;100.00
14041;BME280;7095;51.388;6.196;2022-08-03T01:56:22;53383.78;;;-145.32;100.00
14041;BME280;7095;51.388;6.196;2022-08-03T01:58:53;53363.91;;;-145.32;100.00
14041;BME280;7095;51.388;6.196;2022-08-03T02:01:24;53383.78;;;-145.32;100.00
14041;BME280;7095;51.388;6.196;2022-08-03T02:04:16;53375.84;;;-145.32;100.00
14041;BME280;7095;51.388;6.196;2022-08-03T02:06:47;53395.72;;;-145.32;100.00
14041;BME280;7095;51.388;6.196;2022-08-03T02:09:28;53403.69;;;-145.32;100.00
14041;BME280;7095;51.388;6.196;2022-08-03T02:11:59;53411.63;;;-145.32;100.00
14041;BME280;7095;51.388;6.196;2022-08-03T02:14:29;53389.75;;;-145.32;100.00
14041;BME280;7095;51.388;6.196;2022-08-03T02:17:00;53403.69;;;-145.32;100.00
14041;BME280;7095;51.388;6.196;2022-08-03T02:19:29;53387.78;;;-145.32;100.00
14041;BME280;7095;51.388;6.196;2022-08-03T02:22:03;53431.50;;;-145.32;100.00
14041;BME280;7095;51.388;6.196;2022-08-03T02:24:32;53407.66;;;-145.32;100.00
14041;BME280;7095;51.388;6.196;2022-08-03T02:27:03;53399.69;;;-145.32;100.00
14041;BME280;7095;51.388;6.196;2022-08-03T02:29:35;53417.59;;;-145.32;100.00
14041;BME280;7095;51.388;6.196;2022-08-03T02:32:13;53385.78;;;-145.32;100.00
14041;BME280;7095;51.388;6.196;2022-08-03T02:34:46;53385.78;;;-145.32;100.00
14041;BME280;7095;51.388;6.196;2022-08-03T02:37:17;53415.59;;;-145.32;100.00
14041;BME280;7095;51.388;6.196;2022-08-03T02:39:48;53407.66;;;-145.32;100.00
14041;BME280;7095;51.388;6.196;2022-08-03T02:42:20;53419.59;;;-145.32;100.00
14041;BME280;7095;51.388;6.196;2022-08-03T02:44:52;53411.63;;;-145.32;100.00
14041;BME280;7095;51.388;6.196;2022-08-03T02:47:25;53419.59;;;-145.32;100.00
14041;BME280;7095;51.388;6.196;2022-08-03T02:50:16;53403.69;;;-145.32;100.00
14041;BME280;7095;51.388;6.196;2022-08-03T02:52:47;53391.75;;;-145.32;100.00
14041;BME280;7095;51.388;6.196;2022-08-03T02:55:18;53421.56;;;-145.32;100.00
14041;BME280;7095;51.388;6.196;2022-08-03T02:57:48;53405.66;;;-145.32;100.00
14041;BME280;7095;51.388;6.196;2022-08-03T03:00:18;53389.75;;;-145.32;100.00
14041;BME280;7095;51.388;6.196;2022-08-03T03:02:57;53409.63;;;-145.32;100.00
14041;BME280;7095;51.388;6.196;2022-08-03T03:05:27;53433.50;;;-145.32;100.00
14041;BME280;7095;51.388;6.196;2022-08-03T03:08:18;53403.69;;;-145.32;100.00
14041;BME280;7095;51.388;6.196;2022-08-03T03:10:55;53431.50;;;-145.32;100.00
14041;BME280;7095;51.388;6.196;2022-08-03T03:13:27;53429.53;;;-145.32;100.00
14041;BME280;7095;51.388;6.196;2022-08-03T03:15:59;53391.75;;;-145.32;100.00
14041;BME280;7095;51.388;6.196;2022-08-03T03:18:30;53425.53;;;-145.32;100.00
14041;BME280;7095;51.388;6.196;2022-08-03T03:21:00;53391.75;;;-145.32;100.00
14041;BME280;7095;51.388;6.196;2022-08-03T03:23:31;53437.47;;;-145.32;100.00
14041;BME280;7095;51.388;6.196;2022-08-03T03:26:03;53447.41;;;-145.32;100.00
14041;BME280;7095;51.388;6.196;2022-08-03T03:28:33;53429.53;;;-145.32;100.00
14041;BME280;7095;51.388;6.196;2022-08-03T03:31:03;53417.59;;;-145.32;100.00
14041;BME280;7095;51.388;6.196;2022-08-03T03:33:35;53397.72;;;-145.32;100.00
14041;BME280;7095;51.388;6.196;2022-08-03T03:36:05;53433.50;;;-145.32;100.00
14041;BME280;7095;51.388;6.196;2022-08-03T03:38:35;53431.50;;;-145.32;100.00
14041;BME280;7095;51.388;6.196;2022-08-03T03:41:04;53397.72;;;-145.32;100.00
14041;BME280;7095;51.388;6.196;2022-08-03T03:43:33;53435.47;;;-145.32;100.00
14041;BME280;7095;51.388;6.196;2022-08-03T03:46:02;53439.47;;;-145.32;100.00
14041;BME280;7095;51.388;6.196;2022-08-03T03:48:33;53451.38;;;-145.32;100.00
14041;BME280;7095;51.388;6.196;2022-08-03T03:51:02;53463.31;;;-145.32;100.00
14041;BME280;7095;51.388;6.196;2022-08-03T03:53:31;53435.47;;;-145.32;100.00
14041;BME280;7095;51.388;6.196;2022-08-03T03:55:59;53443.44;;;-145.32;100.00
14041;BME280;7095;51.388;6.196;2022-08-03T03:58:30;53447.41;;;-145.32;100.00
14041;BME280;7095;51.388;6.196;2022-08-03T04:00:59;53407.66;;;-145.32;100.00
14041;BME280;7095;51.388;6.196;2022-08-03T04:03:28;53455.38;;;-145.32;100.00
14041;BME280;7095;51.388;6.196;2022-08-03T04:05:59;53427.53;;;-145.32;100.00
14041;BME280;7095;51.388;6.196;2022-08-03T04:08:44;53467.28;;;-145.32;100.00
14041;BME280;7095;51.388;6.196;2022-08-03T04:11:42;53435.47;;;-145.32;100.00
14041;BME280;7095;51.388;6.196;2022-08-03T04:14:16;53463.31;;;-145.32;100.00
14041;BME280;7095;51.388;6.196;2022-08-03T04:16:49;53443.44;;;-145.32;100.00
14041;BME280;7095;51.388;6.196;2022-08-03T04:19:25;53427.53;;;-145.32;100.00
14041;BME280;7095;51.388;6.196;2022-08-03T04:22:00;53461.31;;;-145.32;100.00
14041;BME280;7095;51.388;6.196;2022-08-03T04:24:33;53449.41;;;-145.32;100.00
14041;BME280;7095;51.388;6.196;2022-08-03T04:27:06;53415.59;;;-145.32;100.00
14041;BME280;7095;51.388;6.196;2022-08-03T04:29:40;53447.41;;;-145.32;100.00
14041;BME280;7095;51.388;6.196;2022-08-03T04:32:15;53471.28;;;-145.32;100.00
14041;BME280;7095;51.388;6.196;2022-08-03T04:34:45;53443.44;;;-145.32;100.00
14041;BME280;7095;51.388;6.196;2022-08-03T04:37:20;53463.31;;;-145.32;100.00
14041;BME280;7095;51.388;6.196;2022-08-03T04:39:52;53457.34;;;-145.32;100.00
14041;BME280;7095;51.388;6.196;2022-08-03T04:42:24;53457.34;;;-145.32;100.00
14041;BME280;7095;51.388;6.196;2022-08-03T04:44:54;53435.47;;;-145.32;100.00
14041;BME280;7095;51.388;6.196;2022-08-03T04:47:29;53433.50;;;-145.32;100.00
14041;BME280;7095;51.388;6.196;2022-08-03T04:50:00;53451.38;;;-145.32;100.00
14041;BME280;7095;51.388;6.196;2022-08-03T04:52:31;53471.28;;;-145.32;100.00
14041;BME280;7095;51.388;6.196;2022-08-03T04:55:00;53475.25;;;-145.32;100.00
14041;BME280;7095;51.388;6.196;2022-08-03T04:57:28;53431.50;;;-145.32;100.00
14041;BME280;7095;51.388;6.196;2022-08-03T04:59:57;53455.38;;;-145.32;100.00
14041;BME280;7095;51.388;6.196;2022-08-03T05:02:30;53443.44;;;-145.32;100.00
14041;BME280;7095;51.388;6.196;2022-08-03T05:04:59;53467.28;;;-145.32;100.00
14041;BME280;7095;51.388;6.196;2022-08-03T05:07:28;53455.38;;;-145.32;100.00
14041;BME280;7095;51.388;6.196;2022-08-03T05:10:05;53447.41;;;-145.32;100.00
14041;BME280;7095;51.388;6.196;2022-08-03T05:12:47;53435.47;;;-145.32;100.00
14041;BME280;7095;51.388;6.196;2022-08-03T05:15:17;53467.28;;;-145.32;100.00
14041;BME280;7095;51.388;6.196;2022-08-03T05:17:47;53471.28;;;-145.32;100.00
14041;BME280;7095;51.388;6.196;2022-08-03T05:20:16;53459.34;;;-145.32;100.00
14041;BME280;7095;51.388;6.196;2022-08-03T05:22:45;53477.22;;;-145.32;100.00
14041;BME280;7095;51.388;6.196;2022-08-03T05:25:15;53465.31;;;-145.32;100.00
14041;BME280;7095;51.388;6.196;2022-08-03T05:27:48;53499.09;;;-145.32;100.00
14041;BME280;7095;51.388;6.196;2022-08-03T05:30:17;53499.09;;;-145.32;100.00
14041;BME280;7095;51.388;6.196;2022-08-03T05:33:01;53499.09;;;-145.32;100.00
14041;BME280;7095;51.388;6.196;2022-08-03T05:35:31;53475.25;;;-145.32;100.00
14041;BME280;7095;51.388;6.196;2022-08-03T05:38:21;53491.16;;;-145.32;100.00
14041;BME280;7095;51.388;6.196;2022-08-03T05:41:00;53465.31;;;-145.32;100.00
14041;BME280;7095;51.388;6.196;2022-08-03T05:43:50;53513.03;;;-145.32;100.00
14041;BME280;7095;51.388;6.196;2022-08-03T05:46:19;53473.25;;;-145.32;100.00
14041;BME280;7095;51.388;6.196;2022-08-03T05:48:48;53495.13;;;-145.32;100.00
14041;BME280;7095;51.388;6.196;2022-08-03T05:51:16;53497.13;;;-145.32;100.00
14041;BME280;7095;51.388;6.196;2022-08-03T05:53:45;53501.09;;;-145.32;100.00
14041;BME280;7095;51.388;6.196;2022-08-03T05:56:16;53495.13;;;-145.32;100.00
14041;BME280;7095;51.388;6.196;2022-08-03T05:58:46;53493.13;;;-145.32;100.00
14041;BME280;7095;51.388;6.196;2022-08-03T06:01:15;53463.31;;;-145.32;100.00
14041;BME280;7095;51.388;6.196;2022-08-03T06:03:44;53457.34;;;-145.32;100.00
14041;BME280;7095;51.388;6.196;2022-08-03T06:06:14;53435.47;;;-145.32;100.00
14041;BME280;7095;51.388;6.196;2022-08-03T06:08:44;53395.72;;;-145.32;100.00
14041;BME280;7095;51.388;6.196;2022-08-03T06:11:16;53363.91;;;-145.32;100.00
14041;BME280;7095;51.388;6.196;2022-08-03T06:13:45;53381.81;;;-145.32;100.00
14041;BME280;7095;51.388;6.196;2022-08-03T06:16:13;53350.00;;;-145.32;100.00
14041;BME280;7095;51.388;6.196;2022-08-03T06:18:42;53334.09;;;-145.32;100.00
14041;BME280;7095;51.388;6.196;2022-08-03T06:21:11;53340.06;;;-145.32;100.00
14041;BME280;7095;51.388;6.196;2022-08-03T06:23:43;53330.13;;;-145.32;100.00
14041;BME280;7095;51.388;6.196;2022-08-03T06:26:26;53314.22;;;-145.32;100.00
14041;BME280;7095;51.388;6.196;2022-08-03T06:28:55;53288.38;;;-145.32;100.00
14041;BME280;7095;51.388;6.196;2022-08-03T06:31:25;53308.25;;;-145.32;100.00
14041;BME280;7095;51.388;6.196;2022-08-03T06:34:01;53298.31;;;-145.32;100.00
14041;BME280;7095;51.388;6.196;2022-08-03T06:36:50;53294.34;;;-145.32;100.00
14041;BME280;7095;51.388;6.196;2022-08-03T06:39:19;53280.41;;;-145.32;100.00
14041;BME280;7095;51.388;6.196;2022-08-03T06:41:52;53258.56;;;-145.32;100.00
14041;BME280;7095;51.388;6.196;2022-08-03T06:44:21;53272.47;;;-145.32;100.00
14041;BME280;7095;51.388;6.196;2022-08-03T06:46:49;53274.47;;;-145.32;100.00
14041;BME280;7095;51.388;6.196;2022-08-03T06:49:19;53270.47;;;-145.32;100.00
14041;BME280;7095;51.388;6.196;2022-08-03T06:51:48;53260.53;;;-145.32;100.00
14041;BME280;7095;51.388;6.196;2022-08-03T06:54:33;53272.47;;;-145.32;100.00
14041;BME280;7095;51.388;6.196;2022-08-03T06:57:04;53264.53;;;-145.32;100.00
14041;BME280;7095;51.388;6.196;2022-08-03T06:59:34;53256.56;;;-145.32;100.00
14041;BME280;7095;51.388;6.196;2022-08-03T07:02:23;53222.78;;;-145.32;100.00
14041;BME280;7095;51.388;6.196;2022-08-03T07:04:57;53228.75;;;-145.32;100.00
14041;BME280;7095;51.388;6.196;2022-08-03T07:07:26;53240.66;;;-145.32;100.00
14041;BME280;7095;51.388;6.196;2022-08-03T07:09:54;53222.78;;;-145.32;100.00
14041;BME280;7095;51.388;6.196;2022-08-03T07:12:27;53242.66;;;-145.32;100.00
14041;BME280;7095;51.388;6.196;2022-08-03T07:14:57;53188.97;;;-145.32;100.00
14041;BME280;7095;51.388;6.196;2022-08-03T07:17:32;53202.91;;;-145.32;100.00
14041;BME280;7095;51.388;6.196;2022-08-03T07:20:03;53236.69;;;-145.32;100.00
14041;BME280;7095;51.388;6.196;2022-08-03T07:22:33;53220.78;;;-145.32;100.00
14041;BME280;7095;51.388;6.196;2022-08-03T07:25:02;53224.75;;;-145.32;100.00
14041;BME280;7095;51.388;6.196;2022-08-03T07:27:33;53228.75;;;-145.32;100.00
14041;BME280;7095;51.388;6.196;2022-08-03T07:30:05;53238.69;;;-145.32;100.00
14041;BME280;7095;51.388;6.196;2022-08-03T07:32:34;53216.81;;;-145.32;100.00
14041;BME280;7095;51.388;6.196;2022-08-03T07:35:16;53204.88;;;-145.32;100.00
14041;BME280;7095;51.388;6.196;2022-08-03T07:37:51;53208.84;;;-145.32;100.00
14041;BME280;7095;51.388;6.196;2022-08-03T07:40:21;53210.84;;;-145.32;100.00
14041;BME280;7095;51.388;6.196;2022-08-03T07:42:58;53208.84;;;-145.32;100.00
14041;BME280;7095;51.388;6.196;2022-08-03T07:45:26;53188.97;;;-145.32;100.00
14041;BME280;7095;51.388;6.196;2022-08-03T07:47:55;53204.88;;;-145.32;100.00
14041;BME280;7095;51.388;6.196;2022-08-03T07:50:24;53230.72;;;-145.32;100.00
14041;BME280;7095;51.388;6.196;2022-08-03T07:52:53;53198.91;;;-145.32;100.00
14041;BME280;7095;51.388;6.196;2022-08-03T07:55:23;53204.88;;;-145.32;100.00
14041;BME280;7095;51.388;6.196;2022-08-03T07:58:03;53196.94;;;-145.32;100.00
14041;BME280;7095;51.388;6.196;2022-08-03T08:00:33;53224.75;;;-145.32;100.00
14041;BME280;7095;51.388;6.196;2022-08-03T08:03:03;53204.88;;;-145.32;100.00
14041;BME280;7095;51.388;6.196;2022-08-03T08:05:31;53202.91;;;-145.32;100.00
14041;BME280;7095;51.388;6.196;2022-08-03T08:08:00;53181.03;;;-145.32;100.00
14041;BME280;7095;51.388;6.196;2022-08-03T08:10:29;53192.94;;;-145.32;100.00
14041;BME280;7095;51.388;6.196;2022-08-03T08:12:59;53192.94;;;-145.32;100.00
14041;BME280;7095;51.388;6.196;2022-08-03T08:15:29;53204.88;;;-145.32;100.00
14041;BME280;7095;51.388;6.196;2022-08-03T08:17:59;53202.91;;;-145.32;100.00
14041;BME280;7095;51.388;6.196;2022-08-03T08:20:31;53185.00;;;-145.32;100.00
14041;BME280;7095;51.388;6.196;2022-08-03T08:23:05;53169.09;;;-145.32;100.00
14041;BME280;7095;51.388;6.196;2022-08-03T08:25:54;53204.88;;;-145.32;100.00
14041;BME280;7095;51.388;6.196;2022-08-03T08:28:23;53222.78;;;-145.32;100.00
14041;BME280;7095;51.388;6.196;2022-08-03T08:31:00;53192.94;;;-145.32;100.00
14041;BME280;7095;51.388;6.196;2022-08-03T08:33:29;53192.94;;;-145.32;100.00
14041;BME280;7095;51.388;6.196;2022-08-03T08:36:18;53187.00;;;-145.32;100.00
14041;BME280;7095;51.388;6.196;2022-08-03T08:38:47;53181.03;;;-145.32;100.00
14041;BME280;7095;51.388;6.196;2022-08-03T08:41:16;53187.00;;;-145.32;100.00
14041;BME280;7095;51.388;6.196;2022-08-03T08:43:45;53173.06;;;-145.32;100.00
14041;BME280;7095;51.388;6.196;2022-08-03T08:46:17;53185.00;;;-145.32;100.00
14041;BME280;7095;51.388;6.196;2022-08-03T08:48:51;53212.84;;;-145.32;100.00
14041;BME280;7095;51.388;6.196;2022-08-03T08:51:21;53163.13;;;-145.32;100.00
14041;BME280;7095;51.388;6.196;2022-08-03T08:54:17;53188.97;;;-145.32;100.00
14041;BME280;7095;51.388;6.196;2022-08-03T08:56:49;53179.03;;;-145.32;100.00
14041;BME280;7095;51.388;6.196;2022-08-03T08:59:19;53204.88;;;-145.32;100.00
14041;BME280;7095;51.388;6.196;2022-08-03T09:01:49;53181.03;;;-145.32;100.00
14041;BME280;7095;51.388;6.196;2022-08-03T09:04:18;53159.16;;;-145.32;100.00
14041;BME280;7095;51.388;6.196;2022-08-03T09:06:46;53198.91;;;-145.32;99.30
14041;BME280;7095;51.388;6.196;2022-08-03T09:09:36;53192.94;;;-145.32;94.64
14041;BME280;7095;51.388;6.196;2022-08-03T09:12:25;53196.94;;;-145.32;95.80
14041;BME280;7095;51.388;6.196;2022-08-03T09:15:21;53153.19;;;-145.32;94.73
14041;BME280;7095;51.388;6.196;2022-08-03T09:17:53;53198.91;;;-145.32;91.32
14041;BME280;7095;51.388;6.196;2022-08-03T09:20:25;53185.00;;;-145.32;88.46
14041;BME280;7095;51.388;6.196;2022-08-03T09:22:56;53198.91;;;-145.32;83.54
14041;BME280;7095;51.388;6.196;2022-08-03T09:25:29;53185.00;;;-145.32;86.45
14041;BME280;7095;51.388;6.196;2022-08-03T09:28:07;53155.19;;;-145.32;85.47
14041;BME280;7095;51.388;6.196;2022-08-03T09:30:38;53169.09;;;-145.32;86.89
14041;BME280;7095;51.388;6.196;2022-08-03T09:33:09;53177.06;;;-145.32;87.11
14041;BME280;7095;51.388;6.196;2022-08-03T09:35:41;53173.06;;;-145.32;80.53
14041;BME280;7095;51.388;6.196;2022-08-03T09:38:24;53196.94;;;-145.32;77.14
14041;BME280;7095;51.388;6.196;2022-08-03T09:40:54;53185.00;;;-145.32;76.79
14041;BME280;7095;51.388;6.196;2022-08-03T09:43:27;53210.84;;;-145.32;78.68
14041;BME280;7095;51.388;6.196;2022-08-03T09:46:02;53177.06;;;-145.32;76.40
14041;BME280;7095;51.388;6.196;2022-08-03T09:48:32;53165.13;;;-145.32;72.26
14041;BME280;7095;51.388;6.196;2022-08-03T09:51:03;53171.09;;;-145.32;69.73
14041;BME280;7095;51.388;6.196;2022-08-03T09:53:44;53159.16;;;-145.32;65.68
14041;BME280;7095;51.388;6.196;2022-08-03T09:56:40;53175.06;;;-145.32;60.32
14041;BME280;7095;51.388;6.196;2022-08-03T09:59:10;53177.06;;;-145.32;64.01
14041;BME280;7095;51.388;6.196;2022-08-03T10:01:42;53173.06;;;-145.32;62.12
14041;BME280;7095;51.388;6.196;2022-08-03T10:04:14;53165.13;;;-145.32;56.36
14041;BME280;7095;51.388;6.196;2022-08-03T10:06:45;53169.09;;;-145.32;58.23
14041;BME280;7095;51.388;6.196;2022-08-03T10:09:15;53161.16;;;-145.32;57.25
14041;BME280;7095;51.388;6.196;2022-08-03T10:11:44;53169.09;;;-145.32;58.97
14041;BME280;7095;51.388;6.196;2022-08-03T10:14:15;53165.13;;;-145.32;60.90
14041;BME280;7095;51.388;6.196;2022-08-03T10:16:46;53161.16;;;-145.32;60.63
14041;BME280;7095;51.388;6.196;2022-08-03T10:19:17;53173.06;;;-145.32;57.27
14041;BME280;7095;51.388;6.196;2022-08-03T10:21:48;53200.91;;;-145.32;55.82
14041;BME280;7095;51.388;6.196;2022-08-03T10:24:23;53202.91;;;-145.32;52.09
14041;BME280;7095;51.388;6.196;2022-08-03T10:26:58;53177.06;;;-145.32;50.01
14041;BME280;7095;51.388;6.196;2022-08-03T10:29:31;53155.19;;;-145.32;49.42
14041;BME280;7095;51.388;6.196;2022-08-03T10:32:03;53194.94;;;-145.32;50.39
14041;BME280;7095;51.388;6.196;2022-08-03T10:34:38;53188.97;;;-145.32;50.15
14041;BME280;7095;51.388;6.196;2022-08-03T10:37:11;53139.28;;;-145.32;48.93
14041;BME280;7095;51.388;6.196;2022-08-03T10:39:43;53147.22;;;-145.32;47.32
14041;BME280;7095;51.388;6.196;2022-08-03T10:42:23;53153.19;;;-145.32;45.47
14041;BME280;7095;51.388;6.196;2022-08-03T10:45:00;53169.09;;;-145.32;44.18
14041;BME280;7095;51.388;6.196;2022-08-03T10:47:30;53157.19;;;-145.32;45.24
14041;BME280;7095;51.388;6.196;2022-08-03T10:50:03;53161.16;;;-145.32;44.06
14041;BME280;7095;51.388;6.196;2022-08-03T10:52:32;53204.88;;;-145.32;44.29
14041;BME280;7095;51.388;6.196;2022-08-03T10:55:29;53153.19;;;-145.32;41.65
14041;BME280;7095;51.388;6.196;2022-08-03T10:58:47;53159.16;;;-145.32;41.20
14041;BME280;7095;51.388;6.196;2022-08-03T11:01:48;53151.22;;;-145.32;40.42
14041;BME280;7095;51.388;6.196;2022-08-03T11:04:27;53153.19;;;-145.32;40.21
14041;BME280;7095;51.388;6.196;2022-08-03T11:07:20;53159.16;;;-145.32;39.22
14041;BME280;7095;51.388;6.196;2022-08-03T11:09:50;53188.97;;;-145.32;39.93
14041;BME280;7095;51.388;6.196;2022-08-03T11:12:21;53181.03;;;-145.32;38.98
14041;BME280;7095;51.388;6.196;2022-08-03T11:15:00;53167.13;;;-145.32;39.96
14041;BME280;7095;51.388;6.196;2022-08-03T11:17:30;53163.13;;;-145.32;39.92
14041;BME280;7095;51.388;6.196;2022-08-03T11:20:13;53179.03;;;-145.32;38.95
14041;BME280;7095;51.388;6.196;2022-08-03T11:22:49;53190.97;;;-145.32;39.04
14041;BME280;7095;51.388;6.196;2022-08-03T11:25:20;53157.19;;;-145.32;39.15
14041;BME280;7095;51.388;6.196;2022-08-03T11:28:25;53145.25;;;-145.32;37.58
14041;BME280;7095;51.388;6.196;2022-08-03T11:30:54;53181.03;;;-145.32;38.44
14041;BME280;7095;51.388;6.196;2022-08-03T11:33:28;53171.09;;;-145.32;37.54
14041;BME280;7095;51.388;6.196;2022-08-03T11:35:59;53187.00;;;-145.32;38.02
14041;BME280;7095;51.388;6.196;2022-08-03T11:38:29;53141.28;;;-145.32;38.00
14041;BME280;7095;51.388;6.196;2022-08-03T11:40:58;53153.19;;;-145.32;37.97
14041;BME280;7095;51.388;6.196;2022-08-03T11:43:44;53163.13;;;-145.32;37.08
14041;BME280;7095;51.388;6.196;2022-08-03T11:46:14;53161.16;;;-145.32;38.49
14041;BME280;7095;51.388;6.196;2022-08-03T11:49:03;53173.06;;;-145.32;36.92
14041;BME280;7095;51.388;6.196;2022-08-03T11:51:37;53183.00;;;-145.32;37.09
14041;BME280;7095;51.388;6.196;2022-08-03T11:54:07;53192.94;;;-145.32;37.60
14041;BME280;7095;51.388;6.196;2022-08-03T11:56:45;53171.09;;;-145.32;36.05
14041;BME280;7095;51.388;6.196;2022-08-03T11:59:14;53187.00;;;-145.32;37.53
14041;BME280;7095;51.388;6.196;2022-08-03T12:01:48;53161.16;;;-145.32;37.16
14041;BME280;7095;51.388;6.196;2022-08-03T12:04:18;53208.84;;;-145.32;36.25
14041;BME280;7095;51.388;6.196;2022-08-03T12:06:59;53179.03;;;-145.32;34.66
14041;BME280;7095;51.388;6.196;2022-08-03T12:09:31;53202.91;;;-145.32;33.84
14041;BME280;7095;51.388;6.196;2022-08-03T12:12:02;53179.03;;;-145.32;34.27
14041;BME280;7095;51.388;6.196;2022-08-03T12:14:32;53175.06;;;-145.32;33.41
14041;BME280;7095;51.388;6.196;2022-08-03T12:17:17;53208.84;;;-145.32;32.74
14041;BME280;7095;51.388;6.196;2022-08-03T12:19:46;53228.75;;;-145.32;32.75
14041;BME280;7095;51.388;6.196;2022-08-03T12:22:15;53214.81;;;-145.32;32.97
14041;BME280;7095;51.388;6.196;2022-08-03T12:24:45;53212.84;;;-145.32;33.09
14041;BME280;7095;51.388;6.196;2022-08-03T12:27:22;53161.16;;;-145.32;33.66
14041;BME280;7095;51.388;6.196;2022-08-03T12:29:52;53169.09;;;-145.32;33.81
14041;BME280;7095;51.388;6.196;2022-08-03T12:32:25;53187.00;;;-145.32;33.48
14041;BME280;7095;51.388;6.196;2022-08-03T12:34:55;53204.88;;;-145.32;32.80
14041;BME280;7095;51.388;6.196;2022-08-03T12:37:27;53188.97;;;-145.32;33.13
14041;BME280;7095;51.388;6.196;2022-08-03T12:39:59;53220.78;;;-145.32;32.27
14041;BME280;7095;51.388;6.196;2022-08-03T12:42:37;53206.88;;;-145.32;32.84
14041;BME280;7095;51.388;6.196;2022-08-03T12:45:20;53192.94;;;-145.32;31.39
14041;BME280;7095;51.388;6.196;2022-08-03T12:47:53;53210.84;;;-145.32;32.41
14041;BME280;7095;51.388;6.196;2022-08-03T12:50:26;53167.13;;;-145.32;32.69
14041;BME280;7095;51.388;6.196;2022-08-03T12:52:56;53220.78;;;-145.32;32.08
14041;BME280;7095;51.388;6.196;2022-08-03T12:55:27;53242.66;;;-145.32;32.11
14041;BME280;7095;51.388;6.196;2022-08-03T12:58:31;53200.91;;;-145.32;32.29
14041;BME280;7095;51.388;6.196;2022-08-03T13:01:03;53200.91;;;-145.32;32.20
14041;BME280;7095;51.388;6.196;2022-08-03T13:03:40;53179.03;;;-145.32;32.46
14041;BME280;7095;51.388;6.196;2022-08-03T13:06:17;53173.06;;;-145.32;31.99
14041;BME280;7095;51.388;6.196;2022-08-03T13:08:46;53214.81;;;-145.32;31.90
14041;BME280;7095;51.388;6.196;2022-08-03T13:11:21;53216.81;;;-145.32;32.32
14041;BME280;7095;51.388;6.196;2022-08-03T13:14:10;53179.03;;;-145.32;32.51
14041;BME280;7095;51.388;6.196;2022-08-03T13:16:43;53181.03;;;-145.32;32.73